createdAt,value
2019-01-29T00:00:54.784Z,1.67
2019-01-29T00:03:22.002Z,2.02
2019-01-29T00:05:49.222Z,1.67
2019-01-29T00:08:16.431Z,2.15
2019-01-29T00:10:43.653Z,1.67
2019-01-29T00:13:10.938Z,1.90
2019-01-29T00:15:38.163Z,2.70
2019-01-29T00:18:05.530Z,2.05
2019-01-29T00:20:32.791Z,2.75
2019-01-29T00:23:00.015Z,2.37
2019-01-29T00:25:27.226Z,2.00
2019-01-29T00:27:54.446Z,2.37
2019-01-29T00:30:21.653Z,1.20
2019-01-29T00:32:48.870Z,2.00
2019-01-29T00:35:16.082Z,1.35
2019-01-29T00:37:43.302Z,1.50
2019-01-29T00:40:11.582Z,2.47
2019-01-29T00:42:38.799Z,2.95
2019-01-29T00:45:07.599Z,1.52
2019-01-29T00:47:34.825Z,1.32
2019-01-29T00:50:02.029Z,1.42
2019-01-29T00:52:29.248Z,1.60
2019-01-29T00:54:56.450Z,2.00
2019-01-29T00:57:23.681Z,1.70
2019-01-29T00:59:52.403Z,1.50
2019-01-29T01:02:19.800Z,1.92
2019-01-29T01:04:47.016Z,1.65
2019-01-29T01:07:14.239Z,2.35
2019-01-29T01:09:41.452Z,1.87
2019-01-29T01:12:08.667Z,1.80
2019-01-29T01:14:35.874Z,1.60
2019-01-29T01:17:03.091Z,2.60
2019-01-29T01:19:30.298Z,1.60
2019-01-29T01:21:57.514Z,2.10
2019-01-29T01:24:24.727Z,2.00
2019-01-29T01:26:51.935Z,1.50
2019-01-29T01:29:19.158Z,1.62
2019-01-29T01:31:46.369Z,1.70
2019-01-29T01:34:13.582Z,0.95
2019-01-29T01:36:40.786Z,1.80
2019-01-29T01:39:08.270Z,1.42
2019-01-29T01:41:35.487Z,1.42
2019-01-29T01:44:02.703Z,1.70
2019-01-29T01:46:29.912Z,1.57
2019-01-29T01:48:57.198Z,1.95
2019-01-29T01:51:24.406Z,1.75
2019-01-29T01:53:51.634Z,1.55
2019-01-29T01:56:18.839Z,1.40
2019-01-29T01:58:46.058Z,1.42
2019-01-29T02:01:13.265Z,1.50
2019-01-29T02:03:40.482Z,1.55
2019-01-29T02:06:07.701Z,1.22
2019-01-29T02:08:34.914Z,1.60
2019-01-29T02:11:02.123Z,1.57
2019-01-29T02:13:29.351Z,2.55
2019-01-29T02:15:56.554Z,1.60
2019-01-29T02:18:23.782Z,1.60
2019-01-29T02:20:50.990Z,1.22
2019-01-29T02:23:18.206Z,1.15
2019-01-29T02:25:45.449Z,1.32
2019-01-29T02:28:12.671Z,1.85
2019-01-29T02:30:39.881Z,1.85
2019-01-29T02:33:07.947Z,1.62
2019-01-29T02:35:35.151Z,1.50
2019-01-29T02:38:02.369Z,0.90
2019-01-29T02:40:29.585Z,1.50
2019-01-29T02:42:56.807Z,1.40
2019-01-29T02:45:24.489Z,1.45
2019-01-29T02:47:51.704Z,2.17
2019-01-29T02:50:18.902Z,1.52
2019-01-29T02:52:46.186Z,2.37
2019-01-29T02:55:13.874Z,1.30
2019-01-29T02:57:41.095Z,0.90
2019-01-29T03:00:12.706Z,1.75
2019-01-29T03:02:39.923Z,1.30
2019-01-29T03:05:08.799Z,1.95
2019-01-29T03:07:36.015Z,1.60
2019-01-29T03:10:04.300Z,2.00
2019-01-29T03:12:31.515Z,1.90
2019-01-29T03:14:58.726Z,1.30
2019-01-29T03:17:25.974Z,1.07
2019-01-29T03:19:53.199Z,1.92
2019-01-29T03:22:20.414Z,1.20
2019-01-29T03:24:47.630Z,1.85
2019-01-29T03:27:14.835Z,1.60
2019-01-29T03:29:42.049Z,1.15
2019-01-29T03:32:09.271Z,1.72
2019-01-29T03:34:36.484Z,2.02
2019-01-29T03:37:03.703Z,1.22
2019-01-29T03:39:30.915Z,1.90
2019-01-29T03:41:58.398Z,1.30
2019-01-29T03:44:25.615Z,1.95
2019-01-29T03:46:52.826Z,1.75
2019-01-29T03:49:20.045Z,1.52
2019-01-29T03:51:47.258Z,1.50
2019-01-29T03:54:14.466Z,1.42
2019-01-29T03:56:41.678Z,1.70
2019-01-29T03:59:08.890Z,1.75
2019-01-29T04:01:36.118Z,1.80
2019-01-29T04:04:03.341Z,2.33
2019-01-29T04:06:30.549Z,2.62
2019-01-29T04:08:57.776Z,1.67
2019-01-29T04:11:24.974Z,1.85
2019-01-29T04:13:52.194Z,1.67
2019-01-29T04:16:19.399Z,2.65
2019-01-29T04:18:46.613Z,1.55
2019-01-29T04:21:13.821Z,1.60
2019-01-29T04:23:47.288Z,2.02
2019-01-29T04:26:09.978Z,1.72
2019-01-29T04:28:37.204Z,1.85
2019-01-29T04:31:04.414Z,1.98
2019-01-29T04:33:31.638Z,1.45
2019-01-29T04:35:58.843Z,1.60
2019-01-29T04:38:26.059Z,2.33
2019-01-29T04:40:53.266Z,1.82
2019-01-29T04:43:20.481Z,1.98
2019-01-29T04:45:47.694Z,2.77
2019-01-29T04:48:14.919Z,2.87
2019-01-29T04:50:42.141Z,1.30
2019-01-29T04:53:09.352Z,2.12
2019-01-29T04:55:36.589Z,2.22
2019-01-29T04:58:03.863Z,2.27
2019-01-29T05:00:31.078Z,1.77
2019-01-29T05:02:58.290Z,2.15
2019-01-29T05:05:26.167Z,1.82
2019-01-29T05:07:53.382Z,1.80
2019-01-29T05:10:21.282Z,1.70
2019-01-29T05:12:48.765Z,1.95
2019-01-29T05:15:16.851Z,1.65
2019-01-29T05:17:44.063Z,1.62
2019-01-29T05:20:12.649Z,1.90
2019-01-29T05:22:39.855Z,2.87
2019-01-29T05:25:08.552Z,3.05
2019-01-29T05:27:35.754Z,1.98
2019-01-29T05:30:03.338Z,2.22
2019-01-29T05:32:30.562Z,1.98
2019-01-29T05:34:57.772Z,2.70
2019-01-29T05:37:24.982Z,2.85
2019-01-29T05:39:52.226Z,2.30
2019-01-29T05:42:19.411Z,2.92
2019-01-29T05:44:46.637Z,2.95
2019-01-29T05:47:13.842Z,2.37
2019-01-29T05:49:43.167Z,2.15
2019-01-29T05:52:10.378Z,3.33
2019-01-29T05:54:37.603Z,2.65
2019-01-29T05:57:04.810Z,2.35
2019-01-29T05:59:32.043Z,2.58
2019-01-29T06:01:59.251Z,2.92
2019-01-29T06:04:26.464Z,2.75
2019-01-29T06:06:53.678Z,2.92
2019-01-29T06:09:20.896Z,2.45
2019-01-29T06:11:48.175Z,2.37
2019-01-29T06:14:15.386Z,2.70
2019-01-29T06:16:42.606Z,2.77
2019-01-29T06:19:09.814Z,2.27
2019-01-29T06:21:37.035Z,2.37
2019-01-29T06:24:04.517Z,2.55
2019-01-29T06:26:31.738Z,3.00
2019-01-29T06:28:58.942Z,2.65
2019-01-29T06:31:26.158Z,2.10
2019-01-29T06:33:53.366Z,2.15
2019-01-29T06:36:20.585Z,2.80
2019-01-29T06:38:47.790Z,2.40
2019-01-29T06:41:15.087Z,3.87
2019-01-29T06:43:42.294Z,3.55
2019-01-29T06:46:09.518Z,3.00
2019-01-29T06:48:36.723Z,3.20
2019-01-29T06:51:04.014Z,2.60
2019-01-29T06:53:31.219Z,2.80
2019-01-29T06:55:58.434Z,1.95
2019-01-29T06:58:25.645Z,2.70
2019-01-29T07:00:52.862Z,2.20
2019-01-29T07:03:20.070Z,2.00
2019-01-29T07:05:47.296Z,3.08
2019-01-29T07:08:14.502Z,2.47
2019-01-29T07:10:41.723Z,2.22
2019-01-29T07:13:08.931Z,2.70
2019-01-29T07:15:54.222Z,3.42
2019-01-29T07:18:41.238Z,3.35
2019-01-29T07:21:09.530Z,4.40
2019-01-29T07:23:36.806Z,3.80
2019-01-29T07:26:04.593Z,2.80
2019-01-29T07:28:31.874Z,2.37
2019-01-29T07:30:59.162Z,2.80
2019-01-29T07:33:26.370Z,2.87
2019-01-29T07:35:53.606Z,2.17
2019-01-29T07:38:20.811Z,3.77
2019-01-29T07:40:48.057Z,4.12
2019-01-29T07:43:15.330Z,3.37
2019-01-29T07:45:42.590Z,4.15
2019-01-29T07:48:09.806Z,2.65
2019-01-29T07:50:37.014Z,2.58
2019-01-29T07:53:04.502Z,3.22
2019-01-29T07:55:31.705Z,3.72
2019-01-29T07:57:58.932Z,2.55
2019-01-29T08:00:26.139Z,2.95
2019-01-29T08:02:53.350Z,2.70
2019-01-29T08:05:20.839Z,2.95
2019-01-29T08:07:48.256Z,2.45
2019-01-29T08:10:16.337Z,4.50
2019-01-29T08:12:43.563Z,4.17
2019-01-29T08:15:12.043Z,5.40
2019-01-29T08:17:39.270Z,3.98
2019-01-29T08:20:08.014Z,4.05
2019-01-29T08:22:35.239Z,3.77
2019-01-29T08:25:02.475Z,3.33
2019-01-29T08:27:29.714Z,2.87
2019-01-29T08:29:56.922Z,2.37
2019-01-29T08:32:24.148Z,2.60
2019-01-29T08:34:51.356Z,2.77
2019-01-29T08:37:18.566Z,3.27
2019-01-29T08:39:45.775Z,3.10
2019-01-29T08:42:12.996Z,2.98
2019-01-29T08:44:40.208Z,3.45
2019-01-29T08:47:07.426Z,3.70
2019-01-29T08:49:34.634Z,3.50
2019-01-29T08:52:01.859Z,3.83
2019-01-29T08:54:29.070Z,2.65
2019-01-29T08:56:56.287Z,3.45
2019-01-29T08:59:23.502Z,3.47
2019-01-29T09:01:50.717Z,3.85
2019-01-29T09:04:17.932Z,4.08
2019-01-29T09:06:45.143Z,3.55
2019-01-29T09:09:12.369Z,3.65
2019-01-29T09:11:39.574Z,3.17
2019-01-29T09:14:06.858Z,2.98
2019-01-29T09:16:34.065Z,3.62
2019-01-29T09:19:01.291Z,3.22
2019-01-29T09:21:28.499Z,2.40
2019-01-29T09:23:55.714Z,4.25
2019-01-29T09:26:22.930Z,5.25
2019-01-29T09:28:50.158Z,3.25
2019-01-29T09:31:17.366Z,3.65
2019-01-29T09:33:44.656Z,3.37
2019-01-29T09:36:11.862Z,3.22
2019-01-29T09:38:39.082Z,4.62
2019-01-29T09:41:06.298Z,3.40
2019-01-29T09:43:33.514Z,3.30
2019-01-29T09:46:00.798Z,3.02
2019-01-29T09:48:28.019Z,2.65
2019-01-29T09:50:55.226Z,2.80
2019-01-29T09:53:22.446Z,3.00
2019-01-29T09:55:49.660Z,3.15
2019-01-29T09:58:16.893Z,3.72
2019-01-29T10:00:44.098Z,2.83
2019-01-29T10:03:11.303Z,2.95
2019-01-29T10:05:38.518Z,3.20
2019-01-29T10:08:05.890Z,3.60
2019-01-29T10:10:33.096Z,2.70
2019-01-29T10:13:00.316Z,2.52
2019-01-29T10:15:31.806Z,1.90
2019-01-29T10:17:59.030Z,2.00
2019-01-29T10:20:26.310Z,1.60
2019-01-29T10:22:53.523Z,2.47
2019-01-29T10:25:20.814Z,2.55
2019-01-29T10:27:48.026Z,3.17
2019-01-29T10:30:16.714Z,2.10
2019-01-29T10:32:43.931Z,2.40
2019-01-29T10:35:15.042Z,2.77
2019-01-29T10:37:42.254Z,2.25
2019-01-29T10:40:11.244Z,2.72
2019-01-29T10:42:38.449Z,2.67
2019-01-29T10:45:07.438Z,2.60
2019-01-29T10:47:34.660Z,3.37
2019-01-29T10:50:01.878Z,2.40
2019-01-29T10:52:29.082Z,2.20
2019-01-29T10:54:58.039Z,2.58
2019-01-29T10:57:25.239Z,2.65
2019-01-29T10:59:52.499Z,2.77
2019-01-29T11:02:19.721Z,2.98
2019-01-29T11:04:46.943Z,2.17
2019-01-29T11:07:14.155Z,2.20
2019-01-29T11:09:41.395Z,1.60
2019-01-29T11:12:08.581Z,1.80
2019-01-29T11:14:35.854Z,1.90
2019-01-29T11:17:03.146Z,2.83
2019-01-29T11:19:30.362Z,2.55
2019-01-29T11:21:57.582Z,2.40
2019-01-29T11:24:24.841Z,2.35
2019-01-29T11:26:52.077Z,3.87
2019-01-29T11:29:19.294Z,2.77
2019-01-29T11:31:46.506Z,2.95
2019-01-29T11:34:13.712Z,3.35
2019-01-29T11:36:41.195Z,3.55
2019-01-29T11:39:09.683Z,3.37
2019-01-29T11:41:36.910Z,4.15
2019-01-29T11:44:04.583Z,3.00
2019-01-29T11:46:31.804Z,3.80
2019-01-29T11:48:59.011Z,3.95
2019-01-29T11:51:26.227Z,3.27
2019-01-29T11:53:53.434Z,3.20
2019-01-29T11:56:20.646Z,4.10
2019-01-29T11:58:47.850Z,3.55
2019-01-29T12:01:15.066Z,3.75
2019-01-29T12:03:42.278Z,3.75
2019-01-29T12:06:09.497Z,4.25
2019-01-29T12:08:36.722Z,3.30
2019-01-29T12:11:04.302Z,4.35
2019-01-29T12:13:31.515Z,3.55
2019-01-29T12:15:58.745Z,4.12
2019-01-29T12:18:25.942Z,3.72
2019-01-29T12:20:53.165Z,3.90
2019-01-29T12:23:20.445Z,4.72
2019-01-29T12:25:47.674Z,5.05
2019-01-29T12:28:14.887Z,4.92
2019-01-29T12:30:42.106Z,3.58
2019-01-29T12:33:09.393Z,3.42
2019-01-29T12:35:36.669Z,3.83
2019-01-29T12:38:04.250Z,4.12
2019-01-29T12:40:31.534Z,4.25
2019-01-29T12:42:58.762Z,4.45
2019-01-29T12:45:26.038Z,4.17
2019-01-29T12:47:53.434Z,4.12
2019-01-29T12:50:22.369Z,4.87
2019-01-29T12:52:54.214Z,4.47
2019-01-29T12:55:21.417Z,3.77
2019-01-29T12:57:48.640Z,4.70
2019-01-29T13:00:17.225Z,3.25
2019-01-29T13:02:44.426Z,3.92
2019-01-29T13:05:12.314Z,2.98
2019-01-29T13:07:39.526Z,3.80
2019-01-29T13:10:20.536Z,4.05
2019-01-29T13:12:47.749Z,3.83
2019-01-29T13:15:19.446Z,3.80
2019-01-29T13:17:46.674Z,3.87
2019-01-29T13:20:13.954Z,2.65
2019-01-29T13:22:41.186Z,3.62
2019-01-29T13:25:09.771Z,2.40
2019-01-29T13:27:36.991Z,2.02
2019-01-29T13:30:05.742Z,3.00
2019-01-29T13:32:32.965Z,2.60
2019-01-29T13:35:00.263Z,2.22
2019-01-29T13:37:27.471Z,2.35
2019-01-29T13:39:54.686Z,2.67
2019-01-29T13:42:21.902Z,2.15
2019-01-29T13:44:49.128Z,3.27
2019-01-29T13:47:16.354Z,2.45
2019-01-29T13:49:43.562Z,1.87
2019-01-29T13:52:10.782Z,2.10
2019-01-29T13:54:38.012Z,2.05
2019-01-29T13:57:05.230Z,1.42
2019-01-29T13:59:32.470Z,2.27
2019-01-29T14:01:59.707Z,1.87
2019-01-29T14:04:26.921Z,3.15
2019-01-29T14:06:54.135Z,2.62
2019-01-29T14:09:21.347Z,1.90
2019-01-29T14:11:48.562Z,1.77
2019-01-29T14:14:15.774Z,1.75
2019-01-29T14:16:42.995Z,1.65
2019-01-29T14:19:10.645Z,1.75
2019-01-29T14:21:37.857Z,1.85
2019-01-29T14:24:05.072Z,1.82
2019-01-29T14:26:32.281Z,1.80
2019-01-29T14:28:59.502Z,5.50
2019-01-29T14:31:26.733Z,2.92
2019-01-29T14:33:53.958Z,2.30
2019-01-29T14:36:21.175Z,1.50
2019-01-29T14:39:06.743Z,1.95
2019-01-29T14:41:34.026Z,1.40
2019-01-29T14:44:01.250Z,2.37
2019-01-29T14:46:28.458Z,2.05
2019-01-29T14:48:55.754Z,1.40
2019-01-29T14:51:22.979Z,1.80
2019-01-29T14:53:50.190Z,2.05
2019-01-29T14:56:17.475Z,2.25
2019-01-29T14:58:44.689Z,2.35
2019-01-29T15:01:11.967Z,2.10
2019-01-29T15:03:39.190Z,2.52
2019-01-29T15:06:06.409Z,3.85
2019-01-29T15:08:33.698Z,3.17
2019-01-29T15:11:00.918Z,2.72
2019-01-29T15:13:28.131Z,2.85
2019-01-29T15:16:00.011Z,2.83
2019-01-29T15:18:28.870Z,1.72
2019-01-29T15:20:56.091Z,2.37
2019-01-29T15:23:23.314Z,2.45
2019-01-29T15:25:50.592Z,2.17
2019-01-29T15:28:18.495Z,3.00
2019-01-29T15:30:45.719Z,4.25
2019-01-29T15:33:12.943Z,6.78
2019-01-29T15:35:40.166Z,3.98
2019-01-29T15:38:07.376Z,5.28
2019-01-29T15:40:34.603Z,2.65
2019-01-29T15:43:01.819Z,3.20
2019-01-29T15:45:29.307Z,2.67
2019-01-29T15:47:56.520Z,2.92
2019-01-29T15:50:24.612Z,2.90
2019-01-29T15:52:51.904Z,3.00
2019-01-29T15:55:19.200Z,3.52
2019-01-29T15:57:46.974Z,3.42
2019-01-29T16:00:15.966Z,2.47
2019-01-29T16:02:43.185Z,14.45
2019-01-29T16:05:12.004Z,11.57
2019-01-29T16:07:39.214Z,7.85
2019-01-29T16:10:07.980Z,6.42
2019-01-29T16:12:35.204Z,10.90
2019-01-29T16:15:02.430Z,5.17
2019-01-29T16:17:29.667Z,5.42
2019-01-29T16:19:56.887Z,3.60
2019-01-29T16:22:24.106Z,3.10
2019-01-29T16:24:51.323Z,2.98
2019-01-29T16:27:22.713Z,3.00
2019-01-29T16:29:47.469Z,2.80
2019-01-29T16:32:14.709Z,3.55
2019-01-29T16:34:41.938Z,2.77
2019-01-29T16:37:09.150Z,3.00
2019-01-29T16:39:36.362Z,3.17
2019-01-29T16:42:03.648Z,3.30
2019-01-29T16:44:30.876Z,2.62
2019-01-29T16:46:58.093Z,3.02
2019-01-29T16:49:25.392Z,3.10
2019-01-29T16:51:52.610Z,3.75
2019-01-29T16:54:19.827Z,5.50
2019-01-29T16:56:47.052Z,4.78
2019-01-29T16:59:14.265Z,3.95
2019-01-29T17:01:41.485Z,4.30
2019-01-29T17:04:08.702Z,4.53
2019-01-29T17:06:35.971Z,3.50
2019-01-29T17:09:04.719Z,3.10
2019-01-29T17:11:31.996Z,3.37
2019-01-29T17:13:59.326Z,3.45
2019-01-29T17:16:26.546Z,4.55
2019-01-29T17:18:53.758Z,3.87
2019-01-29T17:21:20.983Z,4.20
2019-01-29T17:23:48.197Z,4.62
2019-01-29T17:26:15.429Z,5.10
2019-01-29T17:28:42.654Z,6.40
2019-01-29T17:31:09.866Z,5.42
2019-01-29T17:33:37.093Z,5.03
2019-01-29T17:36:04.375Z,5.62
2019-01-29T17:38:31.619Z,5.42
2019-01-29T17:50:27.757Z,4.83
2019-01-29T17:53:05.338Z,4.78
2019-01-29T17:55:54.180Z,5.55
2019-01-29T18:05:14.470Z,5.40
2019-01-29T18:10:30.347Z,5.85
2019-01-29T18:12:58.152Z,4.92
2019-01-29T18:18:19.799Z,3.47
2019-01-29T18:20:47.418Z,4.33
2019-01-29T18:23:14.638Z,3.37
2019-01-29T18:25:41.853Z,4.47
2019-01-29T18:28:09.099Z,3.65
2019-01-29T18:30:36.395Z,4.30
2019-01-29T18:33:04.080Z,3.62
2019-01-29T18:35:31.285Z,3.77
2019-01-29T18:37:58.782Z,4.40
2019-01-29T18:40:30.210Z,3.33
2019-01-29T18:42:57.435Z,6.10
2019-01-29T18:45:24.642Z,8.53
2019-01-29T18:47:51.870Z,4.33
2019-01-29T18:50:19.542Z,3.42
2019-01-29T18:52:46.762Z,4.05
2019-01-29T18:55:13.986Z,4.03
2019-01-29T18:57:41.206Z,5.00
2019-01-29T19:00:12.976Z,4.90
2019-01-29T19:02:40.193Z,4.50
2019-01-29T19:05:08.882Z,4.78
2019-01-29T19:07:36.109Z,5.30
2019-01-29T19:10:04.190Z,4.25
2019-01-29T19:12:31.443Z,3.37
2019-01-29T19:14:58.655Z,3.47
2019-01-29T19:17:25.881Z,3.42
2019-01-29T19:19:53.123Z,3.33
2019-01-29T19:22:22.669Z,3.52
2019-01-29T19:24:49.276Z,3.72
2019-01-29T19:27:16.558Z,3.08
2019-01-29T19:29:43.763Z,3.67
2019-01-29T19:32:10.989Z,3.22
2019-01-29T19:34:38.196Z,3.25
2019-01-29T19:37:05.410Z,3.67
2019-01-29T19:39:32.628Z,3.40
2019-01-29T19:41:59.834Z,3.83
2019-01-29T19:44:27.062Z,4.50
2019-01-29T19:46:54.271Z,5.05
2019-01-29T19:49:21.494Z,9.68
2019-01-29T19:51:49.104Z,5.80
2019-01-29T19:54:16.507Z,5.85
2019-01-29T19:56:43.726Z,6.17
2019-01-29T19:59:10.943Z,5.47
2019-01-29T20:01:38.167Z,4.50
2019-01-29T20:04:05.382Z,4.78
2019-01-29T20:06:32.595Z,5.05
2019-01-29T20:08:59.814Z,3.60
2019-01-29T20:11:27.030Z,4.90
2019-01-29T20:13:54.252Z,3.20
2019-01-29T20:16:21.465Z,5.25
2019-01-29T20:18:49.090Z,3.55
2019-01-29T20:21:16.671Z,3.98
2019-01-29T20:23:43.887Z,3.90
2019-01-29T20:26:11.099Z,2.92
2019-01-29T20:28:42.572Z,4.08
2019-01-29T20:31:07.251Z,3.25
2019-01-29T20:33:34.470Z,4.17
2019-01-29T20:36:01.682Z,3.50
2019-01-29T20:38:34.911Z,3.62
2019-01-29T20:40:57.822Z,3.27
2019-01-29T20:43:25.436Z,3.12
2019-01-29T20:45:52.950Z,2.85
2019-01-29T20:48:20.155Z,4.33
2019-01-29T20:50:47.379Z,3.62
2019-01-29T20:53:14.589Z,2.95
2019-01-29T20:55:41.886Z,3.45
2019-01-29T20:58:09.121Z,4.83
2019-01-29T21:00:38.591Z,4.12
2019-01-29T21:03:05.812Z,4.00
2019-01-29T21:05:33.119Z,3.42
2019-01-29T21:08:00.687Z,4.78
2019-01-29T21:10:28.002Z,4.03
2019-01-29T21:12:55.215Z,4.85
2019-01-29T21:15:23.975Z,3.77
2019-01-29T21:17:51.349Z,4.45
2019-01-29T21:20:22.318Z,5.60
2019-01-29T21:22:49.538Z,5.90
2019-01-29T21:25:16.768Z,5.22
2019-01-29T21:27:43.974Z,7.53
2019-01-29T21:30:21.882Z,5.90
2019-01-29T21:32:49.098Z,5.12
2019-01-29T21:35:16.386Z,4.78
2019-01-29T21:37:43.662Z,5.20
2019-01-29T21:40:12.154Z,4.95
2019-01-29T21:42:39.382Z,5.72
2019-01-29T21:45:08.154Z,4.20
2019-01-29T21:47:35.355Z,5.15
2019-01-29T21:50:11.272Z,5.75
2019-01-29T21:52:31.523Z,4.58
2019-01-29T21:54:58.774Z,6.05
2019-01-29T21:57:25.990Z,5.65
2019-01-29T21:59:53.227Z,5.70
2019-01-29T22:02:20.519Z,6.03
2019-01-29T22:04:47.755Z,4.87
2019-01-29T22:07:14.967Z,3.75
2019-01-29T22:09:42.186Z,3.65
2019-01-29T22:12:09.398Z,5.50
2019-01-29T22:14:36.629Z,5.62
2019-01-29T22:17:03.839Z,4.67
2019-01-29T22:19:31.066Z,4.30
2019-01-29T22:21:58.269Z,4.00
2019-01-29T22:24:25.558Z,3.50
2019-01-29T22:26:52.779Z,3.83
2019-01-29T22:29:23.297Z,4.15
2019-01-29T22:31:48.937Z,4.45
2019-01-29T22:34:16.159Z,4.22
2019-01-29T22:36:43.378Z,4.10
2019-01-29T22:39:10.591Z,5.22
2019-01-29T22:41:37.806Z,4.35
2019-01-29T22:44:05.024Z,3.00
2019-01-29T22:46:32.242Z,3.60
2019-01-29T22:48:59.455Z,4.35
2019-01-29T22:51:26.675Z,3.72
2019-01-29T22:53:53.883Z,3.00
2019-01-29T22:56:21.106Z,3.45
2019-01-29T22:58:48.313Z,4.40
2019-01-29T23:01:17.070Z,3.65
2019-01-29T23:03:44.278Z,4.10
2019-01-29T23:06:13.034Z,3.60
2019-01-29T23:08:40.251Z,3.75
2019-01-29T23:11:07.535Z,3.20
2019-01-29T23:13:34.746Z,3.62
2019-01-29T23:16:01.966Z,3.30
2019-01-29T23:18:29.174Z,3.60
2019-01-29T23:20:56.396Z,3.87
2019-01-29T23:23:23.599Z,3.67
2019-01-29T23:25:50.813Z,3.40
2019-01-29T23:28:18.031Z,4.80
2019-01-29T23:30:45.258Z,3.98
2019-01-29T23:33:12.469Z,4.00
2019-01-29T23:35:39.681Z,3.20
2019-01-29T23:38:06.897Z,3.17
2019-01-29T23:40:34.113Z,3.65
2019-01-29T23:43:01.331Z,3.83
2019-01-29T23:45:28.545Z,4.28
2019-01-29T23:48:01.568Z,4.75
2019-01-29T23:50:29.346Z,4.30
2019-01-29T23:52:56.567Z,3.62
2019-01-29T23:55:23.786Z,4.08
2019-01-29T23:57:51.007Z,3.12
